Historie AUP a zpráv METAR Praha-Ruzyně z 12:00 UTC

Datum: 11-08-2018 / Vyber datum:
LKPR 111200Z 23016G26KT 210V270 9999 FEW070TCU 24/08 Q1021 NOSIG
Prostor Spodní hranice Horní hranice Od Do
TRA62 3000FT/AMSL F245 07:00 14:00
TSA5B GND F135 07:00 13:00